sensor_id;sensor_type;location;lat;lon;timestamp;pressure;altitude;pressure_sealevel;temperature;humidity
65190;BME280;51777;53.570;9.984;2023-03-31T00:00:52;99998.47;;;10.88;100.00
65190;BME280;51777;53.570;9.984;2023-03-31T00:03:18;100000.25;;;10.88;100.00
65190;BME280;51777;53.570;9.984;2023-03-31T00:05:48;100001.22;;;10.87;100.00
65190;BME280;51777;53.570;9.984;2023-03-31T00:08:17;100004.78;;;10.86;100.00
65190;BME280;51777;53.570;9.984;2023-03-31T00:10:45;100000.25;;;10.88;100.00
65190;BME280;51777;53.570;9.984;2023-03-31T00:13:11;100006.72;;;10.84;100.00
65190;BME280;51777;53.570;9.984;2023-03-31T00:15:37;99997.38;;;10.83;100.00
65190;BME280;51777;53.570;9.984;2023-03-31T00:18:03;99997.03;;;10.86;100.00
65190;BME280;51777;53.570;9.984;2023-03-31T00:20:28;99985.53;;;10.88;100.00
65190;BME280;51777;53.570;9.984;2023-03-31T00:22:54;99995.06;;;10.88;100.00
65190;BME280;51777;53.570;9.984;2023-03-31T00:25:22;99997.19;;;10.84;100.00
65190;BME280;51777;53.570;9.984;2023-03-31T00:27:47;99986.22;;;10.82;100.00
65190;BME280;51777;53.570;9.984;2023-03-31T00:30:15;99988.63;;;10.84;100.00
65190;BME280;51777;53.570;9.984;2023-03-31T00:32:40;99981.22;;;10.81;100.00
65190;BME280;51777;53.570;9.984;2023-03-31T00:35:06;99982.84;;;10.74;100.00
65190;BME280;51777;53.570;9.984;2023-03-31T00:37:33;99980.25;;;10.66;100.00
65190;BME280;51777;53.570;9.984;2023-03-31T00:39:58;99973.47;;;10.65;100.00
65190;BME280;51777;53.570;9.984;2023-03-31T00:42:25;99971.22;;;10.70;100.00
65190;BME280;51777;53.570;9.984;2023-03-31T00:50:19;99961.53;;;10.64;100.00
65190;BME280;51777;53.570;9.984;2023-03-31T00:52:48;99957.16;;;10.64;100.00
65190;BME280;51777;53.570;9.984;2023-03-31T00:55:19;99954.41;;;10.66;100.00
65190;BME280;51777;53.570;9.984;2023-03-31T00:57:47;99959.25;;;10.69;100.00
65190;BME280;51777;53.570;9.984;2023-03-31T01:00:13;99951.34;;;10.70;100.00
65190;BME280;51777;53.570;9.984;2023-03-31T01:02:47;99946.97;;;10.71;100.00
65190;BME280;51777;53.570;9.984;2023-03-31T01:05:32;99950.53;;;10.70;100.00
65190;BME280;51777;53.570;9.984;2023-03-31T01:08:01;99949.91;;;10.68;100.00
65190;BME280;51777;53.570;9.984;2023-03-31T01:10:32;99941.00;;;10.70;100.00
65190;BME280;51777;53.570;9.984;2023-03-31T01:13:03;99942.09;;;10.76;100.00
65190;BME280;51777;53.570;9.984;2023-03-31T01:15:28;99942.28;;;10.74;100.00
65190;BME280;51777;53.570;9.984;2023-03-31T01:17:54;99927.56;;;10.75;100.00
65190;BME280;51777;53.570;9.984;2023-03-31T01:20:50;99923.66;;;10.79;100.00
65190;BME280;51777;53.570;9.984;2023-03-31T01:40:34;99908.94;;;10.87;100.00
65190;BME280;51777;53.570;9.984;2023-03-31T01:51:09;99880.13;;;10.91;100.00
65190;BME280;51777;53.570;9.984;2023-03-31T01:53:54;99888.41;;;10.86;100.00
65190;BME280;51777;53.570;9.984;2023-03-31T01:56:35;99884.72;;;10.80;100.00
65190;BME280;51777;53.570;9.984;2023-03-31T01:59:11;99888.13;;;10.81;100.00
65190;BME280;51777;53.570;9.984;2023-03-31T02:01:46;99885.19;;;10.84;100.00
65190;BME280;51777;53.570;9.984;2023-03-31T02:04:21;99882.91;;;10.89;100.00
65190;BME280;51777;53.570;9.984;2023-03-31T02:06:55;99884.50;;;10.90;100.00
65190;BME280;51777;53.570;9.984;2023-03-31T02:09:25;99878.22;;;10.93;100.00
65190;BME280;51777;53.570;9.984;2023-03-31T02:11:53;99875.44;;;10.94;100.00
65190;BME280;51777;53.570;9.984;2023-03-31T02:14:23;99869.31;;;10.95;100.00
65190;BME280;51777;53.570;9.984;2023-03-31T02:16:55;99867.34;;;10.97;100.00
65190;BME280;51777;53.570;9.984;2023-03-31T02:19:32;99856.22;;;10.88;100.00
65190;BME280;51777;53.570;9.984;2023-03-31T02:22:01;99849.16;;;10.82;100.00
65190;BME280;51777;53.570;9.984;2023-03-31T02:24:30;99848.66;;;10.79;100.00
65190;BME280;51777;53.570;9.984;2023-03-31T02:27:10;99845.28;;;10.78;100.00
65190;BME280;51777;53.570;9.984;2023-03-31T02:29:38;99841.88;;;10.78;100.00
65190;BME280;51777;53.570;9.984;2023-03-31T02:34:44;99837.22;;;10.73;100.00
65190;BME280;51777;53.570;9.984;2023-03-31T02:37:10;99831.09;;;10.74;100.00
65190;BME280;51777;53.570;9.984;2023-03-31T02:39:37;99835.28;;;10.75;100.00
65190;BME280;51777;53.570;9.984;2023-03-31T02:42:05;99838.38;;;10.71;100.00
65190;BME280;51777;53.570;9.984;2023-03-31T02:44:38;99837.59;;;10.70;100.00
65190;BME280;51777;53.570;9.984;2023-03-31T02:47:06;99832.88;;;10.74;100.00
65190;BME280;51777;53.570;9.984;2023-03-31T02:49:33;99824.31;;;10.73;100.00
65190;BME280;51777;53.570;9.984;2023-03-31T03:00:26;99811.91;;;10.69;100.00
65190;BME280;51777;53.570;9.984;2023-03-31T03:06:15;99804.47;;;10.66;100.00
65190;BME280;51777;53.570;9.984;2023-03-31T03:14:27;99795.63;;;10.60;100.00
65190;BME280;51777;53.570;9.984;2023-03-31T03:17:00;99788.94;;;10.66;100.00
65190;BME280;51777;53.570;9.984;2023-03-31T03:19:27;99787.34;;;10.65;100.00
65190;BME280;51777;53.570;9.984;2023-03-31T03:21:52;99794.13;;;10.66;100.00
65190;BME280;51777;53.570;9.984;2023-03-31T03:24:18;99782.84;;;10.58;100.00
65190;BME280;51777;53.570;9.984;2023-03-31T03:26:44;99780.44;;;10.57;100.00
65190;BME280;51777;53.570;9.984;2023-03-31T03:29:11;99776.38;;;10.63;100.00
65190;BME280;51777;53.570;9.984;2023-03-31T03:31:39;99765.69;;;10.66;100.00
65190;BME280;51777;53.570;9.984;2023-03-31T03:34:05;99765.03;;;10.64;100.00
65190;BME280;51777;53.570;9.984;2023-03-31T03:36:31;99764.06;;;10.65;100.00
65190;BME280;51777;53.570;9.984;2023-03-31T03:38:57;99762.16;;;10.67;100.00
65190;BME280;51777;53.570;9.984;2023-03-31T03:41:23;99765.03;;;10.64;100.00
65190;BME280;51777;53.570;9.984;2023-03-31T03:43:48;99765.03;;;10.64;100.00
65190;BME280;51777;53.570;9.984;2023-03-31T03:46:13;99765.69;;;10.66;100.00
65190;BME280;51777;53.570;9.984;2023-03-31T03:48:39;99762.78;;;10.69;100.00
65190;BME280;51777;53.570;9.984;2023-03-31T03:51:05;99763.41;;;10.71;100.00
65190;BME280;51777;53.570;9.984;2023-03-31T03:53:30;99768.41;;;10.72;100.00
65190;BME280;51777;53.570;9.984;2023-03-31T03:55:56;99762.44;;;10.72;100.00
65190;BME280;51777;53.570;9.984;2023-03-31T03:58:23;99753.88;;;10.71;100.00
65190;BME280;51777;53.570;9.984;2023-03-31T04:00:48;99751.28;;;10.71;100.00
65190;BME280;51777;53.570;9.984;2023-03-31T04:03:14;99748.88;;;10.70;100.00
65190;BME280;51777;53.570;9.984;2023-03-31T04:05:40;99749.69;;;10.70;100.00
65190;BME280;51777;53.570;9.984;2023-03-31T04:08:06;99739.34;;;10.70;100.00
65190;BME280;51777;53.570;9.984;2023-03-31T04:10:33;99735.13;;;10.69;100.00
65190;BME280;51777;53.570;9.984;2023-03-31T04:12:59;99734.00;;;10.72;100.00
65190;BME280;51777;53.570;9.984;2023-03-31T04:15:24;99734.00;;;10.72;100.00
65190;BME280;51777;53.570;9.984;2023-03-31T04:17:50;99725.59;;;10.70;100.00
65190;BME280;51777;53.570;9.984;2023-03-31T04:20:19;99716.88;;;10.71;100.00
65190;BME280;51777;53.570;9.984;2023-03-31T04:22:45;99722.66;;;10.73;100.00
65190;BME280;51777;53.570;9.984;2023-03-31T04:25:15;99719.09;;;10.74;100.00
65190;BME280;51777;53.570;9.984;2023-03-31T04:27:45;99715.53;;;10.75;100.00
65190;BME280;51777;53.570;9.984;2023-03-31T04:30:15;99711.19;;;10.75;100.00
65190;BME280;51777;53.570;9.984;2023-03-31T04:35:16;99703.94;;;10.71;100.00
65190;BME280;51777;53.570;9.984;2023-03-31T04:37:43;99700.72;;;10.69;100.00
65190;BME280;51777;53.570;9.984;2023-03-31T04:40:09;99699.41;;;10.73;100.00
65190;BME280;51777;53.570;9.984;2023-03-31T04:42:35;99688.72;;;10.76;100.00
65190;BME280;51777;53.570;9.984;2023-03-31T04:45:01;99689.34;;;10.78;100.00
65190;BME280;51777;53.570;9.984;2023-03-31T04:47:26;99681.75;;;10.76;100.00
65190;BME280;51777;53.570;9.984;2023-03-31T04:49:51;99687.56;;;10.78;100.00
65190;BME280;51777;53.570;9.984;2023-03-31T04:52:17;99677.88;;;10.80;100.00
65190;BME280;51777;53.570;9.984;2023-03-31T04:54:42;99677.06;;;10.80;100.00
65190;BME280;51777;53.570;9.984;2023-03-31T04:57:08;99659.91;;;10.79;100.00
65190;BME280;51777;53.570;9.984;2023-03-31T04:59:33;99668.31;;;10.81;100.00
65190;BME280;51777;53.570;9.984;2023-03-31T05:01:58;99658.16;;;10.79;100.00
65190;BME280;51777;53.570;9.984;2023-03-31T05:04:24;99659.91;;;10.79;100.00
65190;BME280;51777;53.570;9.984;2023-03-31T05:06:49;99648.63;;;10.80;100.00
65190;BME280;51777;53.570;9.984;2023-03-31T05:09:15;99645.69;;;10.83;100.00
65190;BME280;51777;53.570;9.984;2023-03-31T05:11:40;99639.97;;;10.87;100.00
65190;BME280;51777;53.570;9.984;2023-03-31T05:14:06;99641.59;;;10.88;100.00
65190;BME280;51777;53.570;9.984;2023-03-31T05:16:31;99634.44;;;10.91;100.00
65190;BME280;51777;53.570;9.984;2023-03-31T05:18:57;99631.94;;;10.82;100.00
65190;BME280;51777;53.570;9.984;2023-03-31T05:21:22;99631.78;;;10.84;100.00
65190;BME280;51777;53.570;9.984;2023-03-31T05:23:48;99633.19;;;10.86;100.00
65190;BME280;51777;53.570;9.984;2023-03-31T05:26:14;99625.25;;;10.88;100.00
65190;BME280;51777;53.570;9.984;2023-03-31T05:28:40;99624.75;;;10.93;100.00
65190;BME280;51777;53.570;9.984;2023-03-31T05:31:07;99618.31;;;10.88;100.00
65190;BME280;51777;53.570;9.984;2023-03-31T05:33:34;99617.31;;;10.89;100.00
65190;BME280;51777;53.570;9.984;2023-03-31T05:36:04;99609.88;;;10.95;100.00
65190;BME280;51777;53.570;9.984;2023-03-31T05:38:30;99607.63;;;10.92;100.00
65190;BME280;51777;53.570;9.984;2023-03-31T05:40:56;99607.28;;;10.95;100.00
65190;BME280;51777;53.570;9.984;2023-03-31T05:43:21;99605.13;;;10.98;100.00
65190;BME280;51777;53.570;9.984;2023-03-31T05:45:47;99602.19;;;11.01;100.00
65190;BME280;51777;53.570;9.984;2023-03-31T05:48:12;99597.75;;;10.95;100.00
65190;BME280;51777;53.570;9.984;2023-03-31T05:50:38;99601.75;;;10.98;100.00
65190;BME280;51777;53.570;9.984;2023-03-31T05:53:03;99604.78;;;11.01;100.00
65190;BME280;51777;53.570;9.984;2023-03-31T05:55:28;99605.69;;;11.08;100.00
65190;BME280;51777;53.570;9.984;2023-03-31T05:57:55;99600.69;;;11.07;100.00
65190;BME280;51777;53.570;9.984;2023-03-31T06:00:21;99604.88;;;11.08;100.00
65190;BME280;51777;53.570;9.984;2023-03-31T06:02:46;99600.97;;;11.12;100.00
65190;BME280;51777;53.570;9.984;2023-03-31T06:05:11;99594.19;;;11.11;100.00
65190;BME280;51777;53.570;9.984;2023-03-31T06:07:37;99591.34;;;11.21;100.00
65190;BME280;51777;53.570;9.984;2023-03-31T06:10:02;99593.38;;;11.25;100.00
65190;BME280;51777;53.570;9.984;2023-03-31T06:12:28;99588.94;;;11.19;100.00
65190;BME280;51777;53.570;9.984;2023-03-31T06:14:53;99584.19;;;11.23;100.00
65190;BME280;51777;53.570;9.984;2023-03-31T06:17:19;99583.50;;;11.29;100.00
65190;BME280;51777;53.570;9.984;2023-03-31T06:19:45;99584.63;;;11.26;100.00
65190;BME280;51777;53.570;9.984;2023-03-31T06:22:10;99579.56;;;11.33;100.00
65190;BME280;51777;53.570;9.984;2023-03-31T06:24:35;99572.97;;;11.45;100.00
65190;BME280;51777;53.570;9.984;2023-03-31T06:27:01;99579.94;;;11.44;100.00
65190;BME280;51777;53.570;9.984;2023-03-31T06:29:28;99577.59;;;11.50;100.00
65190;BME280;51777;53.570;9.984;2023-03-31T06:31:53;99579.28;;;11.57;100.00
65190;BME280;51777;53.570;9.984;2023-03-31T06:34:19;99577.22;;;11.67;100.00
65190;BME280;51777;53.570;9.984;2023-03-31T06:36:45;99580.25;;;11.71;100.00
65190;BME280;51777;53.570;9.984;2023-03-31T06:39:10;99580.69;;;11.74;100.00
65190;BME280;51777;53.570;9.984;2023-03-31T06:41:36;99584.44;;;11.72;100.00
65190;BME280;51777;53.570;9.984;2023-03-31T06:44:02;99583.53;;;11.65;100.00
65190;BME280;51777;53.570;9.984;2023-03-31T06:46:28;99578.22;;;11.66;100.00
65190;BME280;51777;53.570;9.984;2023-03-31T06:48:53;99574.44;;;11.84;100.00
65190;BME280;51777;53.570;9.984;2023-03-31T06:51:19;99574.78;;;11.95;100.00
65190;BME280;51777;53.570;9.984;2023-03-31T06:53:44;99574.22;;;12.00;100.00
65190;BME280;51777;53.570;9.984;2023-03-31T06:56:10;99568.31;;;12.06;100.00
65190;BME280;51777;53.570;9.984;2023-03-31T06:58:35;99565.34;;;12.09;100.00
65190;BME280;51777;53.570;9.984;2023-03-31T07:01:02;99575.47;;;12.04;100.00
65190;BME280;51777;53.570;9.984;2023-03-31T07:03:28;99569.50;;;12.03;100.00
65190;BME280;51777;53.570;9.984;2023-03-31T07:05:54;99567.94;;;12.09;100.00
65190;BME280;51777;53.570;9.984;2023-03-31T07:08:20;99561.72;;;12.25;100.00
65190;BME280;51777;53.570;9.984;2023-03-31T07:10:47;99558.63;;;12.36;100.00
65190;BME280;51777;53.570;9.984;2023-03-31T07:13:14;99563.09;;;12.42;100.00
65190;BME280;51777;53.570;9.984;2023-03-31T07:15:40;99554.75;;;12.47;100.00
65190;BME280;51777;53.570;9.984;2023-03-31T07:18:06;99555.97;;;12.51;100.00
65190;BME280;51777;53.570;9.984;2023-03-31T07:20:31;99557.25;;;12.61;100.00
65190;BME280;51777;53.570;9.984;2023-03-31T07:22:58;99550.75;;;12.72;100.00
65190;BME280;51777;53.570;9.984;2023-03-31T07:25:23;99553.56;;;12.77;100.00
65190;BME280;51777;53.570;9.984;2023-03-31T07:27:48;99555.66;;;12.88;100.00
65190;BME280;51777;53.570;9.984;2023-03-31T07:30:17;99547.59;;;12.77;100.00
65190;BME280;51777;53.570;9.984;2023-03-31T07:32:45;99542.50;;;12.62;100.00
65190;BME280;51777;53.570;9.984;2023-03-31T07:35:12;99546.06;;;12.61;100.00
65190;BME280;51777;53.570;9.984;2023-03-31T07:37:40;99552.25;;;12.60;100.00
65190;BME280;51777;53.570;9.984;2023-03-31T07:40:07;99544.84;;;12.57;100.00
65190;BME280;51777;53.570;9.984;2023-03-31T07:42:34;99545.94;;;12.41;100.00
65190;BME280;51777;53.570;9.984;2023-03-31T07:45:00;99534.13;;;12.39;100.00
65190;BME280;51777;53.570;9.984;2023-03-31T07:47:26;99531.59;;;12.24;100.00
65190;BME280;51777;53.570;9.984;2023-03-31T07:49:52;99526.63;;;12.22;100.00
65190;BME280;51777;53.570;9.984;2023-03-31T07:52:17;99528.97;;;12.17;100.00
65190;BME280;51777;53.570;9.984;2023-03-31T07:54:44;99527.59;;;12.21;100.00
65190;BME280;51777;53.570;9.984;2023-03-31T07:57:11;99527.00;;;12.19;100.00
65190;BME280;51777;53.570;9.984;2023-03-31T07:59:36;99523.91;;;12.09;100.00
65190;BME280;51777;53.570;9.984;2023-03-31T08:02:02;99520.19;;;11.97;100.00
65190;BME280;51777;53.570;9.984;2023-03-31T08:04:27;99521.06;;;11.83;100.00
65190;BME280;51777;53.570;9.984;2023-03-31T08:06:53;99518.47;;;11.83;100.00
65190;BME280;51777;53.570;9.984;2023-03-31T08:09:19;99513.31;;;11.68;100.00
65190;BME280;51777;53.570;9.984;2023-03-31T08:11:46;99510.09;;;11.66;100.00
65190;BME280;51777;53.570;9.984;2023-03-31T08:14:11;99498.19;;;11.71;100.00
65190;BME280;51777;53.570;9.984;2023-03-31T08:16:37;99500.41;;;11.74;100.00
65190;BME280;51777;53.570;9.984;2023-03-31T08:19:02;99498.56;;;11.68;100.00
65190;BME280;51777;53.570;9.984;2023-03-31T08:21:28;99495.53;;;11.80;100.00
65190;BME280;51777;53.570;9.984;2023-03-31T08:23:55;99493.41;;;11.90;100.00
65190;BME280;51777;53.570;9.984;2023-03-31T08:26:20;99492.63;;;11.89;100.00
65190;BME280;51777;53.570;9.984;2023-03-31T08:28:46;99493.25;;;11.91;100.00
65190;BME280;51777;53.570;9.984;2023-03-31T08:31:15;99491.69;;;11.97;100.00
65190;BME280;51777;53.570;9.984;2023-03-31T08:33:43;99491.94;;;12.02;100.00
65190;BME280;51777;53.570;9.984;2023-03-31T08:36:10;99479.94;;;11.94;100.00
65190;BME280;51777;53.570;9.984;2023-03-31T08:38:36;99485.91;;;11.95;100.00
65190;BME280;51777;53.570;9.984;2023-03-31T08:41:05;99480.72;;;11.95;100.00
65190;BME280;51777;53.570;9.984;2023-03-31T08:43:39;99484.00;;;12.03;100.00
65190;BME280;51777;53.570;9.984;2023-03-31T08:46:10;99489.22;;;12.10;100.00
65190;BME280;51777;53.570;9.984;2023-03-31T08:48:49;99478.03;;;12.03;100.00
65190;BME280;51777;53.570;9.984;2023-03-31T08:51:24;99479.56;;;11.97;100.00
65190;BME280;51777;53.570;9.984;2023-03-31T08:54:04;99467.91;;;11.72;100.00
65190;BME280;51777;53.570;9.984;2023-03-31T08:56:34;99467.97;;;11.57;100.00
65190;BME280;51777;53.570;9.984;2023-03-31T08:59:05;99467.34;;;11.55;100.00
65190;BME280;51777;53.570;9.984;2023-03-31T09:01:45;99457.19;;;11.54;100.00
65190;BME280;51777;53.570;9.984;2023-03-31T09:07:24;99456.72;;;11.50;100.00
65190;BME280;51777;53.570;9.984;2023-03-31T09:10:22;99451.69;;;11.42;100.00
65190;BME280;51777;53.570;9.984;2023-03-31T09:13:05;99442.66;;;11.38;100.00
65190;BME280;51777;53.570;9.984;2023-03-31T09:18:37;99439.00;;;11.47;100.00
65190;BME280;51777;53.570;9.984;2023-03-31T09:23:35;99431.44;;;11.67;100.00
65190;BME280;51777;53.570;9.984;2023-03-31T09:26:04;99425.22;;;11.83;100.00
65190;BME280;51777;53.570;9.984;2023-03-31T09:28:38;99427.31;;;11.94;100.00
65190;BME280;51777;53.570;9.984;2023-03-31T09:31:12;99425.72;;;11.93;100.00
65190;BME280;51777;53.570;9.984;2023-03-31T09:33:43;99420.09;;;11.89;100.00
65190;BME280;51777;53.570;9.984;2023-03-31T09:36:16;99414.06;;;11.82;100.00
65190;BME280;51777;53.570;9.984;2023-03-31T09:38:43;99414.75;;;11.91;100.00
65190;BME280;51777;53.570;9.984;2023-03-31T09:41:09;99414.06;;;11.82;100.00
65190;BME280;51777;53.570;9.984;2023-03-31T09:43:36;99406.69;;;11.79;100.00
65190;BME280;51777;53.570;9.984;2023-03-31T09:46:14;99401.59;;;11.92;100.00
65190;BME280;51777;53.570;9.984;2023-03-31T09:48:41;99399.84;;;11.99;100.00
65190;BME280;51777;53.570;9.984;2023-03-31T09:51:17;99397.88;;;12.01;100.00
65190;BME280;51777;53.570;9.984;2023-03-31T09:56:51;99390.25;;;12.21;100.00
65190;BME280;51777;53.570;9.984;2023-03-31T09:59:18;99388.13;;;12.31;100.00
65190;BME280;51777;53.570;9.984;2023-03-31T10:01:45;99385.94;;;12.28;100.00
65190;BME280;51777;53.570;9.984;2023-03-31T10:04:20;99379.31;;;12.26;100.00
65190;BME280;51777;53.570;9.984;2023-03-31T10:06:46;99371.50;;;12.19;100.00
65190;BME280;51777;53.570;9.984;2023-03-31T10:09:13;99379.78;;;12.36;100.00
65190;BME280;51777;53.570;9.984;2023-03-31T10:12:07;99374.97;;;12.33;100.00
65190;BME280;51777;53.570;9.984;2023-03-31T10:14:43;99371.41;;;12.34;100.00
65190;BME280;51777;53.570;9.984;2023-03-31T10:17:26;99374.66;;;12.43;100.00
65190;BME280;51777;53.570;9.984;2023-03-31T10:20:18;99374.19;;;12.32;100.00
65190;BME280;51777;53.570;9.984;2023-03-31T10:22:44;99370.31;;;12.22;100.00
65190;BME280;51777;53.570;9.984;2023-03-31T10:25:17;99369.34;;;12.23;100.00
65190;BME280;51777;53.570;9.984;2023-03-31T10:27:47;99365.47;;;12.12;100.00
65190;BME280;51777;53.570;9.984;2023-03-31T10:30:18;99368.72;;;12.21;100.00
65190;BME280;51777;53.570;9.984;2023-03-31T10:32:45;99363.47;;;12.42;100.00
65190;BME280;51777;53.570;9.984;2023-03-31T10:35:29;99358.38;;;12.55;100.00
65190;BME280;51777;53.570;9.984;2023-03-31T10:37:56;99358.03;;;12.72;100.00
65190;BME280;51777;53.570;9.984;2023-03-31T10:40:30;99352.84;;;12.65;100.00
65190;BME280;51777;53.570;9.984;2023-03-31T10:43:19;99351.69;;;12.87;100.00
65190;BME280;51777;53.570;9.984;2023-03-31T10:45:50;99350.16;;;13.00;100.00
65190;BME280;51777;53.570;9.984;2023-03-31T10:50:53;99339.41;;;13.03;100.00
65190;BME280;51777;53.570;9.984;2023-03-31T10:53:19;99344.91;;;12.80;100.00
65190;BME280;51777;53.570;9.984;2023-03-31T10:58:36;99334.22;;;12.55;100.00
65190;BME280;51777;53.570;9.984;2023-03-31T11:01:18;99332.09;;;12.72;100.00
65190;BME280;51777;53.570;9.984;2023-03-31T11:04:07;99331.91;;;12.73;100.00
65190;BME280;51777;53.570;9.984;2023-03-31T11:06:57;99329.66;;;12.57;100.00
65190;BME280;51777;53.570;9.984;2023-03-31T11:12:20;99322.63;;;12.51;100.00
65190;BME280;51777;53.570;9.984;2023-03-31T11:17:42;99317.13;;;12.74;100.00
65190;BME280;51777;53.570;9.984;2023-03-31T11:20:35;99310.94;;;12.68;100.00
65190;BME280;51777;53.570;9.984;2023-03-31T11:23:22;99314.94;;;12.77;100.00
65190;BME280;51777;53.570;9.984;2023-03-31T11:40:01;99299.69;;;12.48;100.00
65190;BME280;51777;53.570;9.984;2023-03-31T11:45:45;99289.06;;;12.29;100.00
65190;BME280;51777;53.570;9.984;2023-03-31T11:48:25;99274.78;;;12.12;100.00
65190;BME280;51777;53.570;9.984;2023-03-31T11:50:55;99277.22;;;11.86;100.00
65190;BME280;51777;53.570;9.984;2023-03-31T11:53:31;99278.72;;;11.73;100.00
65190;BME280;51777;53.570;9.984;2023-03-31T11:55:59;99282.81;;;11.61;100.00
65190;BME280;51777;53.570;9.984;2023-03-31T11:58:51;99279.53;;;11.53;100.00
65190;BME280;51777;53.570;9.984;2023-03-31T12:01:28;99279.00;;;11.57;100.00
65190;BME280;51777;53.570;9.984;2023-03-31T12:06:38;99270.03;;;11.60;100.00
65190;BME280;51777;53.570;9.984;2023-03-31T12:12:04;99264.06;;;11.59;100.00
65190;BME280;51777;53.570;9.984;2023-03-31T12:19:48;99259.22;;;11.50;100.00
65190;BME280;51777;53.570;9.984;2023-03-31T12:22:21;99265.69;;;11.39;100.00
65190;BME280;51777;53.570;9.984;2023-03-31T12:24:50;99263.31;;;11.37;100.00
65190;BME280;51777;53.570;9.984;2023-03-31T12:27:25;99252.53;;;11.34;100.00
65190;BME280;51777;53.570;9.984;2023-03-31T12:32:29;99241.47;;;11.18;100.00
65190;BME280;51777;53.570;9.984;2023-03-31T12:35:01;99242.25;;;10.98;100.00
65190;BME280;51777;53.570;9.984;2023-03-31T12:43:31;99231.41;;;11.09;100.00
65190;BME280;51777;53.570;9.984;2023-03-31T12:46:17;99235.03;;;11.14;100.00
65190;BME280;51777;53.570;9.984;2023-03-31T12:48:51;99232.09;;;11.17;100.00
65190;BME280;51777;53.570;9.984;2023-03-31T12:54:21;99222.06;;;11.29;100.00
65190;BME280;51777;53.570;9.984;2023-03-31T12:59:40;99222.56;;;11.46;100.00
65190;BME280;51777;53.570;9.984;2023-03-31T13:04:42;99215.78;;;11.45;100.00
65190;BME280;51777;53.570;9.984;2023-03-31T13:07:33;99219.94;;;11.67;100.00
65190;BME280;51777;53.570;9.984;2023-03-31T13:10:25;99205.50;;;11.86;100.00
65190;BME280;51777;53.570;9.984;2023-03-31T13:13:03;99211.66;;;12.26;100.00
65190;BME280;51777;53.570;9.984;2023-03-31T13:15:30;99203.38;;;12.51;100.00
65190;BME280;51777;53.570;9.984;2023-03-31T13:18:00;99199.22;;;12.63;100.00
65190;BME280;51777;53.570;9.984;2023-03-31T13:20:30;99196.41;;;12.64;100.00
65190;BME280;51777;53.570;9.984;2023-03-31T13:25:33;99195.00;;;12.42;100.00
65190;BME280;51777;53.570;9.984;2023-03-31T13:33:14;99183.06;;;12.54;100.00
65190;BME280;51777;53.570;9.984;2023-03-31T13:35:47;99180.25;;;12.56;100.00
65190;BME280;51777;53.570;9.984;2023-03-31T13:46:20;99184.47;;;12.77;100.00
65190;BME280;51777;53.570;9.984;2023-03-31T13:49:29;99181.31;;;12.94;100.00
65190;BME280;51777;53.570;9.984;2023-03-31T13:52:09;99177.31;;;13.12;100.00
65190;BME280;51777;53.570;9.984;2023-03-31T14:01:20;99169.53;;;12.85;100.00
65190;BME280;51777;53.570;9.984;2023-03-31T14:04:01;99169.31;;;13.00;100.00
65190;BME280;51777;53.570;9.984;2023-03-31T14:06:38;99174.75;;;13.18;100.00
65190;BME280;51777;53.570;9.984;2023-03-31T14:09:39;99174.91;;;13.57;100.00
65190;BME280;51777;53.570;9.984;2023-03-31T14:12:28;99174.38;;;13.99;100.00
65190;BME280;51777;53.570;9.984;2023-03-31T14:14:55;99167.53;;;14.11;100.00
65190;BME280;51777;53.570;9.984;2023-03-31T14:17:23;99173.06;;;14.22;100.00
65190;BME280;51777;53.570;9.984;2023-03-31T14:25:39;99172.41;;;14.39;100.00
65190;BME280;51777;53.570;9.984;2023-03-31T14:33:55;99170.91;;;14.12;100.00
65190;BME280;51777;53.570;9.984;2023-03-31T14:36:47;99173.56;;;14.05;100.00
65190;BME280;51777;53.570;9.984;2023-03-31T14:39:24;99167.63;;;13.92;100.00
65190;BME280;51777;53.570;9.984;2023-03-31T14:41:52;99170.81;;;13.87;100.00
65190;BME280;51777;53.570;9.984;2023-03-31T14:44:19;99167.47;;;13.73;100.00
65190;BME280;51777;53.570;9.984;2023-03-31T14:46:45;99161.25;;;13.81;100.00
65190;BME280;51777;53.570;9.984;2023-03-31T14:49:28;99158.28;;;13.77;100.00
65190;BME280;51777;53.570;9.984;2023-03-31T14:51:59;99156.03;;;13.88;100.00
65190;BME280;51777;53.570;9.984;2023-03-31T14:54:25;99163.00;;;13.94;100.00
65190;BME280;51777;53.570;9.984;2023-03-31T14:56:56;99164.53;;;14.15;100.00
65190;BME280;51777;53.570;9.984;2023-03-31T14:59:32;99158.00;;;14.37;100.00
65190;BME280;51777;53.570;9.984;2023-03-31T15:01:59;99156.00;;;14.39;100.00
65190;BME280;51777;53.570;9.984;2023-03-31T15:04:28;99161.88;;;14.21;100.00
65190;BME280;51777;53.570;9.984;2023-03-31T15:06:58;99157.47;;;14.22;100.00
65190;BME280;51777;53.570;9.984;2023-03-31T15:09:28;99148.44;;;14.31;100.00
65190;BME280;51777;53.570;9.984;2023-03-31T15:12:02;99151.47;;;14.28;100.00
65190;BME280;51777;53.570;9.984;2023-03-31T15:14:44;99152.50;;;14.20;100.00
65190;BME280;51777;53.570;9.984;2023-03-31T15:19:44;99150.59;;;13.96;100.00
65190;BME280;51777;53.570;9.984;2023-03-31T15:22:17;99152.03;;;13.92;100.00
65190;BME280;51777;53.570;9.984;2023-03-31T15:24:44;99149.06;;;13.81;100.00
65190;BME280;51777;53.570;9.984;2023-03-31T15:29:50;99150.88;;;13.74;100.00
65190;BME280;51777;53.570;9.984;2023-03-31T15:32:28;99146.94;;;13.59;100.00
65190;BME280;51777;53.570;9.984;2023-03-31T15:34:58;99150.53;;;13.58;100.00
65190;BME280;51777;53.570;9.984;2023-03-31T15:37:26;99149.13;;;13.55;100.00
65190;BME280;51777;53.570;9.984;2023-03-31T15:40:01;99142.97;;;13.43;100.00
65190;BME280;51777;53.570;9.984;2023-03-31T15:42:33;99145.38;;;13.44;100.00
65190;BME280;51777;53.570;9.984;2023-03-31T15:47:49;99146.41;;;13.30;100.00